sensor_id;sensor_type;location;lat;lon;timestamp;pressure;altitude;pressure_sealevel;temperature;humidity
64610;BME280;51019;46.090;6.350;2024-02-21T00:01:25;97662.06;;;3.91;100.00
64610;BME280;51019;46.090;6.350;2024-02-21T00:03:52;97657.34;;;3.99;100.00
64610;BME280;51019;46.090;6.350;2024-02-21T00:06:27;97675.97;;;3.90;100.00
64610;BME280;51019;46.090;6.350;2024-02-21T00:08:55;97668.91;;;3.75;100.00
64610;BME280;51019;46.090;6.350;2024-02-21T00:11:22;97668.69;;;3.79;100.00
64610;BME280;51019;46.090;6.350;2024-02-21T00:13:51;97655.53;;;3.65;100.00
64610;BME280;51019;46.090;6.350;2024-02-21T00:16:18;97660.59;;;3.68;100.00
64610;BME280;51019;46.090;6.350;2024-02-21T00:18:46;97655.78;;;3.78;100.00
64610;BME280;51019;46.090;6.350;2024-02-21T00:21:16;97662.22;;;3.88;100.00
64610;BME280;51019;46.090;6.350;2024-02-21T00:23:44;97662.78;;;3.40;100.00
64610;BME280;51019;46.090;6.350;2024-02-21T00:26:13;97656.41;;;3.28;100.00
64610;BME280;51019;46.090;6.350;2024-02-21T00:28:40;97657.81;;;3.35;100.00
64610;BME280;51019;46.090;6.350;2024-02-21T00:31:10;97650.06;;;3.71;100.00
64610;BME280;51019;46.090;6.350;2024-02-21T00:33:37;97641.81;;;3.63;100.00
64610;BME280;51019;46.090;6.350;2024-02-21T00:36:04;97631.09;;;3.52;100.00
64610;BME280;51019;46.090;6.350;2024-02-21T00:38:32;97633.41;;;4.11;100.00
64610;BME280;51019;46.090;6.350;2024-02-21T00:40:59;97636.00;;;3.94;100.00
64610;BME280;51019;46.090;6.350;2024-02-21T00:43:26;97631.38;;;3.64;100.00
64610;BME280;51019;46.090;6.350;2024-02-21T00:45:55;97625.56;;;3.59;100.00
64610;BME280;51019;46.090;6.350;2024-02-21T00:48:36;97604.34;;;3.51;100.00
64610;BME280;51019;46.090;6.350;2024-02-21T00:51:04;97611.28;;;3.51;100.00
64610;BME280;51019;46.090;6.350;2024-02-21T00:53:32;97606.66;;;3.39;100.00
64610;BME280;51019;46.090;6.350;2024-02-21T00:56:04;97617.53;;;3.28;100.00
64610;BME280;51019;46.090;6.350;2024-02-21T00:58:32;97613.63;;;3.38;100.00
64610;BME280;51019;46.090;6.350;2024-02-21T01:01:00;97611.66;;;3.43;100.00
64610;BME280;51019;46.090;6.350;2024-02-21T01:03:28;97610.09;;;3.58;100.00
64610;BME280;51019;46.090;6.350;2024-02-21T01:05:58;97588.44;;;3.23;100.00
64610;BME280;51019;46.090;6.350;2024-02-21T01:08:25;97609.78;;;3.09;100.00
64610;BME280;51019;46.090;6.350;2024-02-21T01:10:53;97608.91;;;3.46;100.00
64610;BME280;51019;46.090;6.350;2024-02-21T01:13:21;97604.91;;;3.58;100.00
64610;BME280;51019;46.090;6.350;2024-02-21T01:15:48;97604.53;;;3.29;100.00
64610;BME280;51019;46.090;6.350;2024-02-21T01:18:15;97602.00;;;3.47;100.00
64610;BME280;51019;46.090;6.350;2024-02-21T01:20:42;97599.38;;;4.00;100.00
64610;BME280;51019;46.090;6.350;2024-02-21T01:23:11;97599.38;;;4.17;100.00
64610;BME280;51019;46.090;6.350;2024-02-21T01:25:38;97595.16;;;3.80;100.00
64610;BME280;51019;46.090;6.350;2024-02-21T01:28:05;97585.47;;;3.67;100.00
64610;BME280;51019;46.090;6.350;2024-02-21T01:30:32;97578.47;;;3.69;100.00
64610;BME280;51019;46.090;6.350;2024-02-21T01:32:59;97581.75;;;3.72;100.00
64610;BME280;51019;46.090;6.350;2024-02-21T01:35:25;97574.19;;;3.85;100.00
64610;BME280;51019;46.090;6.350;2024-02-21T01:37:52;97573.41;;;3.65;100.00
64610;BME280;51019;46.090;6.350;2024-02-21T01:40:21;97564.88;;;3.46;100.00
64610;BME280;51019;46.090;6.350;2024-02-21T01:42:48;97559.63;;;3.29;100.00
64610;BME280;51019;46.090;6.350;2024-02-21T01:45:15;97550.94;;;3.49;100.00
64610;BME280;51019;46.090;6.350;2024-02-21T01:47:42;97543.59;;;3.57;100.00
64610;BME280;51019;46.090;6.350;2024-02-21T01:50:09;97544.28;;;3.43;100.00
64610;BME280;51019;46.090;6.350;2024-02-21T01:52:37;97519.41;;;3.39;100.00
64610;BME280;51019;46.090;6.350;2024-02-21T01:55:05;97545.44;;;3.72;100.00
64610;BME280;51019;46.090;6.350;2024-02-21T01:57:35;97546.72;;;4.15;100.00
64610;BME280;51019;46.090;6.350;2024-02-21T02:00:02;97541.31;;;4.03;100.00
64610;BME280;51019;46.090;6.350;2024-02-21T02:02:29;97548.88;;;3.90;100.00
64610;BME280;51019;46.090;6.350;2024-02-21T02:04:56;97556.31;;;3.61;100.00
64610;BME280;51019;46.090;6.350;2024-02-21T02:07:24;97558.50;;;3.35;100.00
64610;BME280;51019;46.090;6.350;2024-02-21T02:09:51;97547.25;;;3.17;100.00
64610;BME280;51019;46.090;6.350;2024-02-21T02:12:18;97521.00;;;2.88;100.00
64610;BME280;51019;46.090;6.350;2024-02-21T02:14:57;97534.47;;;3.14;100.00
64610;BME280;51019;46.090;6.350;2024-02-21T02:17:25;97533.38;;;3.01;100.00
64610;BME280;51019;46.090;6.350;2024-02-21T02:19:52;97515.81;;;2.88;100.00
64610;BME280;51019;46.090;6.350;2024-02-21T02:22:22;97522.03;;;3.03;100.00
64610;BME280;51019;46.090;6.350;2024-02-21T02:24:51;97512.84;;;3.32;100.00
64610;BME280;51019;46.090;6.350;2024-02-21T02:27:18;97503.41;;;3.31;100.00
64610;BME280;51019;46.090;6.350;2024-02-21T02:29:45;97482.91;;;3.26;100.00
64610;BME280;51019;46.090;6.350;2024-02-21T02:32:13;97499.13;;;3.30;100.00
64610;BME280;51019;46.090;6.350;2024-02-21T02:34:40;97514.72;;;3.82;100.00
64610;BME280;51019;46.090;6.350;2024-02-21T02:37:07;97498.69;;;3.74;100.00
64610;BME280;51019;46.090;6.350;2024-02-21T02:39:35;97511.41;;;3.44;100.00
64610;BME280;51019;46.090;6.350;2024-02-21T02:42:04;97490.38;;;2.97;100.00
64610;BME280;51019;46.090;6.350;2024-02-21T02:44:32;97510.75;;;2.85;100.00
64610;BME280;51019;46.090;6.350;2024-02-21T02:47:00;97521.75;;;2.90;100.00
64610;BME280;51019;46.090;6.350;2024-02-21T02:49:27;97514.16;;;3.23;100.00
64610;BME280;51019;46.090;6.350;2024-02-21T02:51:54;97510.56;;;3.43;100.00
64610;BME280;51019;46.090;6.350;2024-02-21T02:54:21;97507.06;;;3.44;100.00
64610;BME280;51019;46.090;6.350;2024-02-21T02:56:50;97495.56;;;3.67;100.00
64610;BME280;51019;46.090;6.350;2024-02-21T02:59:20;97491.53;;;3.27;100.00
64610;BME280;51019;46.090;6.350;2024-02-21T03:01:47;97487.00;;;3.13;100.00
64610;BME280;51019;46.090;6.350;2024-02-21T03:04:15;97487.94;;;2.93;100.00
64610;BME280;51019;46.090;6.350;2024-02-21T03:06:42;97491.09;;;3.00;100.00
64610;BME280;51019;46.090;6.350;2024-02-21T03:09:09;97484.94;;;2.84;100.00
64610;BME280;51019;46.090;6.350;2024-02-21T03:11:38;97458.91;;;2.87;100.00
64610;BME280;51019;46.090;6.350;2024-02-21T03:14:06;97445.44;;;2.62;100.00
64610;BME280;51019;46.090;6.350;2024-02-21T03:16:36;97456.38;;;2.68;100.00
64610;BME280;51019;46.090;6.350;2024-02-21T03:19:04;97461.69;;;3.01;100.00
64610;BME280;51019;46.090;6.350;2024-02-21T03:21:31;97411.56;;;3.02;100.00
64610;BME280;51019;46.090;6.350;2024-02-21T03:24:00;97451.88;;;3.08;100.00
64610;BME280;51019;46.090;6.350;2024-02-21T03:26:29;97446.94;;;3.03;100.00
64610;BME280;51019;46.090;6.350;2024-02-21T03:28:56;97432.06;;;3.24;100.00
64610;BME280;51019;46.090;6.350;2024-02-21T03:31:23;97447.84;;;3.19;100.00
64610;BME280;51019;46.090;6.350;2024-02-21T03:33:57;97435.97;;;3.15;100.00
64610;BME280;51019;46.090;6.350;2024-02-21T03:36:26;97443.50;;;3.72;100.00
64610;BME280;51019;46.090;6.350;2024-02-21T03:38:54;97443.63;;;3.51;100.00
64610;BME280;51019;46.090;6.350;2024-02-21T03:41:21;97435.56;;;3.06;100.00
64610;BME280;51019;46.090;6.350;2024-02-21T03:43:48;97426.72;;;3.10;100.00
64610;BME280;51019;46.090;6.350;2024-02-21T03:46:15;97435.41;;;3.09;100.00
64610;BME280;51019;46.090;6.350;2024-02-21T03:48:42;97432.91;;;3.24;100.00
64610;BME280;51019;46.090;6.350;2024-02-21T03:51:12;97422.91;;;2.64;100.00
64610;BME280;51019;46.090;6.350;2024-02-21T03:53:40;97431.00;;;2.75;100.00
64610;BME280;51019;46.090;6.350;2024-02-21T03:56:09;97435.66;;;3.04;100.00
64610;BME280;51019;46.090;6.350;2024-02-21T03:58:37;97431.06;;;2.92;100.00
64610;BME280;51019;46.090;6.350;2024-02-21T04:01:04;97426.47;;;2.61;100.00
64610;BME280;51019;46.090;6.350;2024-02-21T04:03:33;97420.94;;;2.33;100.00
64610;BME280;51019;46.090;6.350;2024-02-21T04:06:01;97424.69;;;2.44;100.00
64610;BME280;51019;46.090;6.350;2024-02-21T04:08:30;97426.38;;;2.45;100.00
64610;BME280;51019;46.090;6.350;2024-02-21T04:10:59;97430.97;;;2.39;100.00
64610;BME280;51019;46.090;6.350;2024-02-21T04:13:27;97417.03;;;2.60;100.00
64610;BME280;51019;46.090;6.350;2024-02-21T04:15:54;97438.66;;;2.78;100.00
64610;BME280;51019;46.090;6.350;2024-02-21T04:18:23;97435.97;;;2.43;100.00
64610;BME280;51019;46.090;6.350;2024-02-21T04:20:51;97432.22;;;2.68;100.00
64610;BME280;51019;46.090;6.350;2024-02-21T04:23:18;97438.31;;;3.03;100.00
64610;BME280;51019;46.090;6.350;2024-02-21T04:25:47;97445.25;;;2.83;100.00
64610;BME280;51019;46.090;6.350;2024-02-21T04:28:14;97410.56;;;2.51;100.00
64610;BME280;51019;46.090;6.350;2024-02-21T04:30:42;97436.00;;;2.79;100.00
64610;BME280;51019;46.090;6.350;2024-02-21T04:33:09;97431.13;;;2.54;100.00
64610;BME280;51019;46.090;6.350;2024-02-21T04:35:36;97440.63;;;2.16;100.00
64610;BME280;51019;46.090;6.350;2024-02-21T04:38:03;97427.16;;;2.29;100.00
64610;BME280;51019;46.090;6.350;2024-02-21T04:40:31;97429.97;;;2.24;100.00
64610;BME280;51019;46.090;6.350;2024-02-21T04:43:01;97430.63;;;2.28;100.00
64610;BME280;51019;46.090;6.350;2024-02-21T04:45:29;97418.13;;;2.18;100.00
64610;BME280;51019;46.090;6.350;2024-02-21T04:47:56;97392.53;;;2.31;100.00
64610;BME280;51019;46.090;6.350;2024-02-21T04:50:25;97371.28;;;2.43;100.00
64610;BME280;51019;46.090;6.350;2024-02-21T04:52:52;97396.00;;;2.68;100.00
64610;BME280;51019;46.090;6.350;2024-02-21T04:55:20;97385.25;;;2.58;100.00
64610;BME280;51019;46.090;6.350;2024-02-21T04:57:47;97376.06;;;2.51;100.00
64610;BME280;51019;46.090;6.350;2024-02-21T05:00:17;97376.56;;;2.59;100.00
64610;BME280;51019;46.090;6.350;2024-02-21T05:02:45;97370.88;;;2.15;100.00
64610;BME280;51019;46.090;6.350;2024-02-21T05:05:13;97378.56;;;3.06;100.00
64610;BME280;51019;46.090;6.350;2024-02-21T05:07:40;97368.03;;;2.57;100.00
64610;BME280;51019;46.090;6.350;2024-02-21T05:10:08;97371.75;;;2.51;100.00
64610;BME280;51019;46.090;6.350;2024-02-21T05:12:36;97366.69;;;2.31;100.00
64610;BME280;51019;46.090;6.350;2024-02-21T05:15:05;97362.59;;;2.44;100.00
64610;BME280;51019;46.090;6.350;2024-02-21T05:17:36;97363.59;;;2.42;100.00
64610;BME280;51019;46.090;6.350;2024-02-21T05:20:03;97364.03;;;2.50;100.00
64610;BME280;51019;46.090;6.350;2024-02-21T05:22:31;97366.88;;;2.45;100.00
64610;BME280;51019;46.090;6.350;2024-02-21T05:24:59;97367.78;;;2.44;100.00
64610;BME280;51019;46.090;6.350;2024-02-21T05:27:26;97367.28;;;2.72;100.00
64610;BME280;51019;46.090;6.350;2024-02-21T05:29:54;97372.75;;;2.66;100.00
64610;BME280;51019;46.090;6.350;2024-02-21T05:32:21;97369.78;;;2.57;100.00
64610;BME280;51019;46.090;6.350;2024-02-21T05:34:50;97367.63;;;2.47;100.00
64610;BME280;51019;46.090;6.350;2024-02-21T05:37:17;97374.38;;;2.69;100.00
64610;BME280;51019;46.090;6.350;2024-02-21T05:39:48;97373.59;;;2.67;100.00
64610;BME280;51019;46.090;6.350;2024-02-21T05:42:20;97369.66;;;2.94;100.00
64610;BME280;51019;46.090;6.350;2024-02-21T05:44:48;97370.31;;;2.63;100.00
64610;BME280;51019;46.090;6.350;2024-02-21T05:47:15;97369.88;;;2.72;100.00
64610;BME280;51019;46.090;6.350;2024-02-21T05:49:42;97365.44;;;2.57;100.00
64610;BME280;51019;46.090;6.350;2024-02-21T05:52:11;97363.84;;;2.54;100.00
64610;BME280;51019;46.090;6.350;2024-02-21T05:54:38;97363.13;;;2.70;100.00
64610;BME280;51019;46.090;6.350;2024-02-21T05:57:08;97367.59;;;2.66;100.00
64610;BME280;51019;46.090;6.350;2024-02-21T05:59:37;97366.63;;;2.69;100.00
64610;BME280;51019;46.090;6.350;2024-02-21T06:02:05;97364.69;;;2.55;100.00
64610;BME280;51019;46.090;6.350;2024-02-21T06:04:33;97370.19;;;2.66;100.00
64610;BME280;51019;46.090;6.350;2024-02-21T06:07:02;97373.78;;;2.45;100.00
64610;BME280;51019;46.090;6.350;2024-02-21T06:09:31;97373.94;;;2.78;100.00
64610;BME280;51019;46.090;6.350;2024-02-21T06:11:59;97356.00;;;2.73;100.00
64610;BME280;51019;46.090;6.350;2024-02-21T06:14:26;97375.00;;;2.91;100.00
64610;BME280;51019;46.090;6.350;2024-02-21T06:16:53;97380.25;;;2.89;100.00
64610;BME280;51019;46.090;6.350;2024-02-21T06:19:21;97375.69;;;2.95;100.00
64610;BME280;51019;46.090;6.350;2024-02-21T06:21:48;97376.59;;;2.93;100.00
64610;BME280;51019;46.090;6.350;2024-02-21T06:24:16;97378.41;;;2.74;100.00
64610;BME280;51019;46.090;6.350;2024-02-21T06:26:45;97382.97;;;2.69;100.00
64610;BME280;51019;46.090;6.350;2024-02-21T06:29:14;97386.50;;;2.85;100.00
64610;BME280;51019;46.090;6.350;2024-02-21T06:31:42;97401.22;;;3.02;100.00
64610;BME280;51019;46.090;6.350;2024-02-21T06:34:09;97382.38;;;2.99;100.00
64610;BME280;51019;46.090;6.350;2024-02-21T06:36:37;97391.53;;;2.88;100.00
64610;BME280;51019;46.090;6.350;2024-02-21T06:39:04;97395.47;;;2.78;100.00
64610;BME280;51019;46.090;6.350;2024-02-21T06:41:33;97399.09;;;2.57;100.00
64610;BME280;51019;46.090;6.350;2024-02-21T06:44:01;97402.41;;;2.95;100.00
64610;BME280;51019;46.090;6.350;2024-02-21T06:46:29;97401.44;;;2.98;100.00
64610;BME280;51019;46.090;6.350;2024-02-21T06:48:59;97389.84;;;2.70;100.00
64610;BME280;51019;46.090;6.350;2024-02-21T06:51:27;97394.31;;;2.67;100.00
64610;BME280;51019;46.090;6.350;2024-02-21T06:53:54;97386.88;;;2.78;100.00
64610;BME280;51019;46.090;6.350;2024-02-21T06:56:24;97409.06;;;3.01;100.00
64610;BME280;51019;46.090;6.350;2024-02-21T06:58:54;97405.00;;;2.95;100.00
64610;BME280;51019;46.090;6.350;2024-02-21T07:01:23;97407.53;;;3.14;100.00
64610;BME280;51019;46.090;6.350;2024-02-21T07:03:50;97401.75;;;3.26;100.00
64610;BME280;51019;46.090;6.350;2024-02-21T07:06:17;97409.06;;;3.18;100.00
64610;BME280;51019;46.090;6.350;2024-02-21T07:08:44;97411.34;;;3.24;100.00
64610;BME280;51019;46.090;6.350;2024-02-21T07:11:11;97422.34;;;3.62;100.00
64610;BME280;51019;46.090;6.350;2024-02-21T07:13:40;97413.09;;;3.41;100.00
64610;BME280;51019;46.090;6.350;2024-02-21T07:16:08;97421.00;;;3.55;100.00
64610;BME280;51019;46.090;6.350;2024-02-21T07:18:38;97423.81;;;3.50;100.00
64610;BME280;51019;46.090;6.350;2024-02-21T07:21:07;97417.34;;;3.42;100.00
64610;BME280;51019;46.090;6.350;2024-02-21T07:23:34;97403.75;;;3.38;100.00
64610;BME280;51019;46.090;6.350;2024-02-21T07:26:01;97412.53;;;3.69;100.00
64610;BME280;51019;46.090;6.350;2024-02-21T07:28:28;97397.59;;;3.56;100.00
64610;BME280;51019;46.090;6.350;2024-02-21T07:30:55;97400.72;;;3.63;100.00
64610;BME280;51019;46.090;6.350;2024-02-21T07:33:22;97399.69;;;3.83;100.00
64610;BME280;51019;46.090;6.350;2024-02-21T07:35:51;97393.47;;;3.70;100.00
64610;BME280;51019;46.090;6.350;2024-02-21T07:38:18;97388.88;;;3.75;100.00
64610;BME280;51019;46.090;6.350;2024-02-21T07:40:46;97368.44;;;4.01;100.00
64610;BME280;51019;46.090;6.350;2024-02-21T07:43:13;97384.69;;;4.36;100.00
64610;BME280;51019;46.090;6.350;2024-02-21T07:45:45;97384.69;;;4.21;100.00
64610;BME280;51019;46.090;6.350;2024-02-21T07:48:15;97387.78;;;4.59;100.00
64610;BME280;51019;46.090;6.350;2024-02-21T07:50:44;97388.41;;;4.78;100.00
64610;BME280;51019;46.090;6.350;2024-02-21T07:53:15;97386.56;;;4.80;100.00
64610;BME280;51019;46.090;6.350;2024-02-21T07:55:43;97387.28;;;4.98;100.00
64610;BME280;51019;46.090;6.350;2024-02-21T07:58:10;97390.06;;;5.25;100.00
64610;BME280;51019;46.090;6.350;2024-02-21T08:00:37;97366.22;;;5.18;100.00
64610;BME280;51019;46.090;6.350;2024-02-21T08:03:04;97390.63;;;5.00;100.00
64610;BME280;51019;46.090;6.350;2024-02-21T08:05:34;97397.47;;;5.61;100.00
64610;BME280;51019;46.090;6.350;2024-02-21T08:08:06;97394.56;;;5.37;100.00
64610;BME280;51019;46.090;6.350;2024-02-21T08:10:39;97385.41;;;5.16;100.00
64610;BME280;51019;46.090;6.350;2024-02-21T08:13:06;97393.19;;;5.45;100.00
64610;BME280;51019;46.090;6.350;2024-02-21T08:15:34;97392.09;;;5.20;100.00
64610;BME280;51019;46.090;6.350;2024-02-21T08:18:04;97376.69;;;5.61;100.00
64610;BME280;51019;46.090;6.350;2024-02-21T08:20:34;97379.22;;;5.91;100.00
64610;BME280;51019;46.090;6.350;2024-02-21T08:23:02;97391.97;;;5.95;100.00
64610;BME280;51019;46.090;6.350;2024-02-21T08:25:29;97385.78;;;6.10;100.00
64610;BME280;51019;46.090;6.350;2024-02-21T08:28:00;97392.75;;;6.38;100.00
64610;BME280;51019;46.090;6.350;2024-02-21T08:30:27;97385.09;;;6.49;100.00
64610;BME280;51019;46.090;6.350;2024-02-21T08:32:56;97369.56;;;6.48;100.00
64610;BME280;51019;46.090;6.350;2024-02-21T08:35:23;97352.66;;;6.68;100.00
64610;BME280;51019;46.090;6.350;2024-02-21T08:37:52;97367.22;;;6.84;100.00
64610;BME280;51019;46.090;6.350;2024-02-21T08:40:19;97368.53;;;6.77;100.00
64610;BME280;51019;46.090;6.350;2024-02-21T08:42:47;97363.03;;;5.86;100.00
64610;BME280;51019;46.090;6.350;2024-02-21T08:45:16;97361.22;;;6.43;100.00
64610;BME280;51019;46.090;6.350;2024-02-21T08:47:44;97357.03;;;6.40;100.00
64610;BME280;51019;46.090;6.350;2024-02-21T08:50:12;97357.56;;;6.18;100.00
64610;BME280;51019;46.090;6.350;2024-02-21T08:52:43;97350.09;;;5.70;100.00
64610;BME280;51019;46.090;6.350;2024-02-21T08:55:10;97354.41;;;6.54;100.00
64610;BME280;51019;46.090;6.350;2024-02-21T08:57:38;97352.25;;;7.01;100.00
64610;BME280;51019;46.090;6.350;2024-02-21T09:00:06;97361.09;;;7.76;100.00
64610;BME280;51019;46.090;6.350;2024-02-21T09:02:40;97332.41;;;7.50;100.00
64610;BME280;51019;46.090;6.350;2024-02-21T09:05:09;97345.91;;;8.06;100.00
64610;BME280;51019;46.090;6.350;2024-02-21T09:07:36;97352.00;;;7.81;100.00
64610;BME280;51019;46.090;6.350;2024-02-21T09:10:04;97352.94;;;7.80;100.00
64610;BME280;51019;46.090;6.350;2024-02-21T09:12:32;97330.63;;;7.51;100.00
64610;BME280;51019;46.090;6.350;2024-02-21T09:14:59;97344.19;;;7.56;100.00
64610;BME280;51019;46.090;6.350;2024-02-21T09:17:27;97343.66;;;7.89;100.00
64610;BME280;51019;46.090;6.350;2024-02-21T09:19:56;97336.56;;;8.27;100.00
64610;BME280;51019;46.090;6.350;2024-02-21T09:22:25;97345.25;;;7.79;100.00
64610;BME280;51019;46.090;6.350;2024-02-21T09:24:52;97335.75;;;8.14;100.00
64610;BME280;51019;46.090;6.350;2024-02-21T09:27:19;97319.69;;;8.57;100.00
64610;BME280;51019;46.090;6.350;2024-02-21T09:29:47;97338.28;;;8.16;100.00
64610;BME280;51019;46.090;6.350;2024-02-21T09:32:14;97347.25;;;8.85;100.00
64610;BME280;51019;46.090;6.350;2024-02-21T09:34:43;97325.44;;;9.43;100.00
64610;BME280;51019;46.090;6.350;2024-02-21T09:37:13;97327.75;;;9.59;100.00
64610;BME280;51019;46.090;6.350;2024-02-21T09:39:40;97326.78;;;9.71;100.00
64610;BME280;51019;46.090;6.350;2024-02-21T09:42:11;97343.81;;;9.65;100.00
64610;BME280;51019;46.090;6.350;2024-02-21T09:44:38;97339.19;;;9.69;100.00
64610;BME280;51019;46.090;6.350;2024-02-21T09:47:09;97343.53;;;9.46;100.00
64610;BME280;51019;46.090;6.350;2024-02-21T09:49:37;97340.25;;;10.00;100.00
64610;BME280;51019;46.090;6.350;2024-02-21T09:52:08;97345.31;;;10.68;100.00
64610;BME280;51019;46.090;6.350;2024-02-21T09:54:39;97329.56;;;10.36;100.00
64610;BME280;51019;46.090;6.350;2024-02-21T09:57:10;97341.84;;;10.79;100.00
64610;BME280;51019;46.090;6.350;2024-02-21T09:59:37;97353.56;;;11.48;100.00
64610;BME280;51019;46.090;6.350;2024-02-21T10:02:07;97325.56;;;12.10;100.00
64610;BME280;51019;46.090;6.350;2024-02-21T10:04:34;97331.97;;;11.03;100.00
64610;BME280;51019;46.090;6.350;2024-02-21T10:07:02;97342.00;;;11.19;100.00
64610;BME280;51019;46.090;6.350;2024-02-21T10:09:29;97333.72;;;12.47;99.83
64610;BME280;51019;46.090;6.350;2024-02-21T10:12:09;97314.69;;;12.73;95.40
64610;BME280;51019;46.090;6.350;2024-02-21T10:14:36;97337.66;;;11.91;97.68
64610;BME280;51019;46.090;6.350;2024-02-21T10:17:04;97338.94;;;12.96;91.03
64610;BME280;51019;46.090;6.350;2024-02-21T10:19:34;97324.03;;;12.57;92.79
64610;BME280;51019;46.090;6.350;2024-02-21T10:22:03;97326.47;;;11.89;93.79
64610;BME280;51019;46.090;6.350;2024-02-21T10:24:30;97314.88;;;12.42;92.58
64610;BME280;51019;46.090;6.350;2024-02-21T10:27:05;97317.00;;;12.67;91.72
64610;BME280;51019;46.090;6.350;2024-02-21T10:29:35;97316.59;;;12.62;89.65
64610;BME280;51019;46.090;6.350;2024-02-21T10:32:06;97314.50;;;12.56;88.73
64610;BME280;51019;46.090;6.350;2024-02-21T10:34:34;97299.44;;;13.35;84.28
64610;BME280;51019;46.090;6.350;2024-02-21T10:37:02;97302.91;;;13.06;83.56
64610;BME280;51019;46.090;6.350;2024-02-21T10:39:29;97300.81;;;12.12;92.51
64610;BME280;51019;46.090;6.350;2024-02-21T10:41:59;97288.78;;;13.07;85.76
64610;BME280;51019;46.090;6.350;2024-02-21T10:44:28;97274.38;;;12.83;79.94
64610;BME280;51019;46.090;6.350;2024-02-21T10:46:58;97271.47;;;12.76;83.25
64610;BME280;51019;46.090;6.350;2024-02-21T10:49:26;97255.09;;;12.34;79.46
64610;BME280;51019;46.090;6.350;2024-02-21T10:51:57;97270.63;;;13.04;74.71
64610;BME280;51019;46.090;6.350;2024-02-21T10:54:41;97261.03;;;12.26;78.66
64610;BME280;51019;46.090;6.350;2024-02-21T10:57:11;97244.06;;;12.79;81.64
64610;BME280;51019;46.090;6.350;2024-02-21T10:59:39;97240.59;;;12.30;80.64
64610;BME280;51019;46.090;6.350;2024-02-21T11:02:09;97235.75;;;12.93;76.79
64610;BME280;51019;46.090;6.350;2024-02-21T11:04:37;97219.00;;;12.46;76.61
64610;BME280;51019;46.090;6.350;2024-02-21T11:07:06;97218.16;;;12.35;76.83
64610;BME280;51019;46.090;6.350;2024-02-21T11:09:34;97201.84;;;12.61;74.51
64610;BME280;51019;46.090;6.350;2024-02-21T11:12:03;97180.59;;;13.10;78.47
64610;BME280;51019;46.090;6.350;2024-02-21T11:14:31;97178.69;;;13.87;69.68
64610;BME280;51019;46.090;6.350;2024-02-21T11:17:01;97175.47;;;13.65;71.74
64610;BME280;51019;46.090;6.350;2024-02-21T11:19:30;97156.94;;;13.48;70.50
64610;BME280;51019;46.090;6.350;2024-02-21T11:21:58;97162.53;;;12.69;71.94
64610;BME280;51019;46.090;6.350;2024-02-21T11:24:27;97145.94;;;12.20;67.15
64610;BME280;51019;46.090;6.350;2024-02-21T11:27:08;97140.53;;;12.22;66.82
64610;BME280;51019;46.090;6.350;2024-02-21T11:29:40;97140.59;;;13.17;65.21
64610;BME280;51019;46.090;6.350;2024-02-21T11:32:09;97136.97;;;12.52;67.41
64610;BME280;51019;46.090;6.350;2024-02-21T11:34:39;97117.56;;;12.53;69.94
64610;BME280;51019;46.090;6.350;2024-02-21T11:37:13;97122.69;;;12.73;69.22
64610;BME280;51019;46.090;6.350;2024-02-21T11:39:42;97113.69;;;13.23;69.48
64610;BME280;51019;46.090;6.350;2024-02-21T11:42:09;97111.03;;;13.23;69.41
64610;BME280;51019;46.090;6.350;2024-02-21T11:44:38;97116.75;;;12.62;70.11
64610;BME280;51019;46.090;6.350;2024-02-21T11:47:06;97108.31;;;13.15;67.12
64610;BME280;51019;46.090;6.350;2024-02-21T11:49:38;97096.22;;;13.22;67.71
64610;BME280;51019;46.090;6.350;2024-02-21T11:52:06;97082.69;;;13.17;68.45
64610;BME280;51019;46.090;6.350;2024-02-21T11:54:34;97082.78;;;13.25;66.22
64610;BME280;51019;46.090;6.350;2024-02-21T11:57:01;97074.94;;;13.15;63.46
64610;BME280;51019;46.090;6.350;2024-02-21T11:59:30;97071.44;;;13.69;63.36
64610;BME280;51019;46.090;6.350;2024-02-21T12:01:58;97064.91;;;13.73;62.79
64610;BME280;51019;46.090;6.350;2024-02-21T12:04:25;97063.28;;;14.08;64.74
64610;BME280;51019;46.090;6.350;2024-02-21T12:06:55;97054.16;;;13.85;60.15
64610;BME280;51019;46.090;6.350;2024-02-21T12:09:24;97067.19;;;14.04;61.24
64610;BME280;51019;46.090;6.350;2024-02-21T12:11:59;97056.94;;;14.01;62.35
64610;BME280;51019;46.090;6.350;2024-02-21T12:14:28;97062.81;;;14.30;60.72
64610;BME280;51019;46.090;6.350;2024-02-21T12:16:55;97049.22;;;14.25;59.59
64610;BME280;51019;46.090;6.350;2024-02-21T12:19:22;97044.72;;;14.53;59.19
64610;BME280;51019;46.090;6.350;2024-02-21T12:21:49;97035.09;;;14.08;61.00
64610;BME280;51019;46.090;6.350;2024-02-21T12:24:22;97023.72;;;13.90;60.45
64610;BME280;51019;46.090;6.350;2024-02-21T12:26:49;97036.38;;;14.40;60.57
64610;BME280;51019;46.090;6.350;2024-02-21T12:29:17;97016.06;;;14.92;60.68
64610;BME280;51019;46.090;6.350;2024-02-21T12:31:44;97011.00;;;14.65;58.48
64610;BME280;51019;46.090;6.350;2024-02-21T12:34:13;97007.94;;;14.77;57.42
64610;BME280;51019;46.090;6.350;2024-02-21T12:36:41;97003.69;;;16.09;53.79
64610;BME280;51019;46.090;6.350;2024-02-21T12:39:09;96990.56;;;15.01;57.62
64610;BME280;51019;46.090;6.350;2024-02-21T12:41:40;96974.59;;;15.77;56.26
64610;BME280;51019;46.090;6.350;2024-02-21T12:44:08;96993.09;;;16.25;53.54
64610;BME280;51019;46.090;6.350;2024-02-21T12:46:36;97001.94;;;17.67;52.67
64610;BME280;51019;46.090;6.350;2024-02-21T12:49:05;96977.47;;;17.26;53.12
64610;BME280;51019;46.090;6.350;2024-02-21T12:51:32;96982.53;;;16.33;55.10
64610;BME280;51019;46.090;6.350;2024-02-21T12:54:00;96970.56;;;16.54;56.15
64610;BME280;51019;46.090;6.350;2024-02-21T12:56:28;96970.00;;;16.83;55.40
64610;BME280;51019;46.090;6.350;2024-02-21T12:58:59;96959.09;;;17.25;54.17
64610;BME280;51019;46.090;6.350;2024-02-21T13:01:26;96951.91;;;17.33;53.54
64610;BME280;51019;46.090;6.350;2024-02-21T13:03:53;96951.00;;;17.80;52.45
64610;BME280;51019;46.090;6.350;2024-02-21T13:06:21;96951.84;;;17.72;52.55